首页
METAR-TAF:

METAR-TAF

机场 :

马德里Torrejón, 西班牙

纬度: 40-29N, 经度: 003-27W, 海拔: 607米

当前天气观测

该预报发布于16分钟前的05:00 UTC
风速18节,风向东转东北
温度 5°C
湿度 81%
气压 1018 hPa
能见度10公里或以上
多云层高于6500英尺

METAR: LETO 220500Z 07018KT 9999 BKN065 05/02 Q1018 NOSIG

时间: 06:16 (05:16 UTC)

预报

该预报发布于6小时和16分钟前的23:00 UTC
预报有效从22日的 00点(UTC)到 22日的 24点(UTC)
风速13节,风向北转东北
能见度10公里或以上
多云层高于6000英尺
几率 30% :
短暂存在
从 22日的 05点(UTC)到 22日的 18点(UTC)
散云层高于3000英尺, 塔状积云.
阵雨

TAF: LETO 212300Z 2200/2224 03013KT 9999 BKN060 TX09/2215Z TN03/2206Z PROB30 TEMPO 2205/2218 SHRA SCT030TCU

超过4000个机场的气象观测和天气预报(METAR&TAF报告)。

可查询的气象台以黄色和红色小点在地图上表示。

将鼠标移到小点上方,可查看气象台名称。

然后点击查看天气观测和预报。

如需切换地图:点击带黑十字的绿色按钮放大地图;点击带横线的绿色按钮缩小地图;或者点击绿色箭头查看邻近地区的地图。


METAR-TAF: